createdAt,value
2023-01-09T00:01:16.151Z,-13.53
2023-01-09T00:03:43.740Z,-13.56
2023-01-09T00:06:11.279Z,-13.59
2023-01-09T00:08:38.628Z,-13.61
2023-01-09T00:11:06.246Z,-13.63
2023-01-09T00:13:33.827Z,-13.66
2023-01-09T00:16:01.219Z,-13.68
2023-01-09T00:18:28.544Z,-13.68
2023-01-09T00:20:55.818Z,-13.69
2023-01-09T00:23:23.103Z,-13.68
2023-01-09T00:25:50.826Z,-13.65
2023-01-09T00:28:18.174Z,-13.62
2023-01-09T00:30:45.695Z,-13.60
2023-01-09T00:33:13.100Z,-13.61
2023-01-09T00:35:40.446Z,-13.61
2023-01-09T00:38:07.907Z,-13.62
2023-01-09T00:40:35.264Z,-13.62
2023-01-09T00:43:02.617Z,-13.65
2023-01-09T00:45:30.175Z,-13.69
2023-01-09T00:48:25.178Z,-13.71
2023-01-09T00:50:53.345Z,-13.74
2023-01-09T00:53:21.825Z,-13.77
2023-01-09T00:55:49.902Z,-13.79
2023-01-09T00:58:17.437Z,-13.80
2023-01-09T01:00:44.913Z,-13.79
2023-01-09T01:03:12.219Z,-13.79
2023-01-09T01:05:58.147Z,-13.78
2023-01-09T01:08:25.513Z,-13.81
2023-01-09T01:10:53.172Z,-13.84
2023-01-09T01:13:20.535Z,-13.87
2023-01-09T01:15:47.777Z,-13.91
2023-01-09T01:18:15.132Z,-13.95
2023-01-09T01:20:43.450Z,-13.96
2023-01-09T01:23:11.289Z,-13.98
2023-01-09T01:25:39.971Z,-13.98
2023-01-09T01:28:07.640Z,-13.99
2023-01-09T01:30:41.157Z,-14.00
2023-01-09T01:33:08.679Z,-14.00
2023-01-09T01:35:36.060Z,-14.00
2023-01-09T01:38:03.607Z,-14.00
2023-01-09T01:40:30.955Z,-14.00
2023-01-09T01:42:59.143Z,-14.00
2023-01-09T01:45:28.676Z,-14.00
2023-01-09T01:48:11.428Z,-13.98
2023-01-09T01:50:40.436Z,-13.96
2023-01-09T01:53:18.866Z,-13.93
2023-01-09T01:55:54.403Z,-13.93
2023-01-09T01:58:21.728Z,-13.92
2023-01-09T02:00:49.142Z,-13.92
2023-01-09T02:03:18.404Z,-13.91
2023-01-09T02:05:45.715Z,-13.90
2023-01-09T02:08:13.077Z,-13.90
2023-01-09T02:10:41.082Z,-13.89
2023-01-09T02:13:08.542Z,-13.87
2023-01-09T02:16:02.952Z,-13.84
2023-01-09T02:18:58.339Z,-13.80
2023-01-09T02:21:35.432Z,-13.77
2023-01-09T02:24:25.884Z,-13.75
2023-01-09T02:27:12.160Z,-13.71
2023-01-09T02:30:03.047Z,-13.68
2023-01-09T02:32:57.270Z,-13.68
2023-01-09T02:35:34.550Z,-13.66
2023-01-09T02:38:21.108Z,-13.66
2023-01-09T02:40:54.026Z,-13.66
2023-01-09T02:43:21.336Z,-13.66
2023-01-09T02:45:48.644Z,-13.64
2023-01-09T02:48:15.913Z,-13.64
2023-01-09T02:50:57.846Z,-13.65
2023-01-09T02:53:50.484Z,-13.66
2023-01-09T02:56:34.119Z,-13.67
2023-01-09T02:59:14.391Z,-13.69
2023-01-09T03:02:07.846Z,-13.70
2023-01-09T03:04:58.545Z,-13.74
2023-01-09T03:07:32.966Z,-13.78
2023-01-09T03:10:30.636Z,-13.78
2023-01-09T03:12:59.080Z,-13.79
2023-01-09T03:15:27.648Z,-13.78
2023-01-09T03:17:54.975Z,-13.75
2023-01-09T03:20:23.844Z,-13.74
2023-01-09T03:22:58.801Z,-13.71
2023-01-09T03:25:26.845Z,-13.70
2023-01-09T03:28:08.529Z,-13.69
2023-01-09T03:30:36.471Z,-13.67
2023-01-09T03:33:03.861Z,-13.69
2023-01-09T03:35:34.285Z,-13.72
2023-01-09T03:38:01.642Z,-13.76
2023-01-09T03:40:28.997Z,-13.78
2023-01-09T03:42:56.558Z,-13.80
2023-01-09T03:45:23.928Z,-13.81
2023-01-09T03:47:52.945Z,-13.83
2023-01-09T03:50:20.456Z,-13.85
2023-01-09T03:52:47.842Z,-13.85
2023-01-09T03:55:15.826Z,-13.85
2023-01-09T03:57:43.448Z,-13.86
2023-01-09T04:00:11.832Z,-13.88
2023-01-09T04:02:42.761Z,-13.90
2023-01-09T04:05:10.581Z,-13.91
2023-01-09T04:07:39.330Z,-13.92
2023-01-09T04:10:07.484Z,-13.92
2023-01-09T04:12:34.736Z,-13.91
2023-01-09T04:15:02.091Z,-13.89
2023-01-09T04:17:29.547Z,-13.87
2023-01-09T04:19:56.920Z,-13.87
2023-01-09T04:22:24.485Z,-13.86
2023-01-09T04:24:51.752Z,-13.85
2023-01-09T04:27:18.934Z,-13.85
2023-01-09T04:29:46.564Z,-13.82
2023-01-09T04:32:13.920Z,-13.83
2023-01-09T04:34:41.134Z,-13.83
2023-01-09T04:37:08.386Z,-13.85
2023-01-09T04:39:35.816Z,-13.87
2023-01-09T04:42:03.511Z,-13.88
2023-01-09T04:44:30.795Z,-13.87
2023-01-09T04:46:59.271Z,-13.87
2023-01-09T04:49:26.697Z,-13.87
2023-01-09T04:51:54.250Z,-13.88
2023-01-09T04:54:22.031Z,-13.88
2023-01-09T04:56:49.254Z,-13.89
2023-01-09T04:59:16.731Z,-13.90
2023-01-09T05:01:44.093Z,-13.91
2023-01-09T05:04:11.967Z,-13.94
2023-01-09T05:06:39.216Z,-13.95
2023-01-09T05:09:06.452Z,-13.95
2023-01-09T05:11:33.720Z,-13.95
2023-01-09T05:14:00.928Z,-13.93
2023-01-09T05:16:28.268Z,-13.92
2023-01-09T05:18:57.511Z,-13.91
2023-01-09T05:21:24.967Z,-13.91
2023-01-09T05:23:52.222Z,-13.90
2023-01-09T05:26:24.259Z,-13.90
2023-01-09T05:28:52.493Z,-13.90
2023-01-09T05:31:20.204Z,-13.90
2023-01-09T05:33:47.520Z,-13.89
2023-01-09T05:36:14.942Z,-13.89
2023-01-09T05:38:42.257Z,-13.90
2023-01-09T05:41:09.580Z,-13.91
2023-01-09T05:43:36.807Z,-13.91
2023-01-09T05:46:04.084Z,-13.91
2023-01-09T05:48:31.327Z,-13.92
2023-01-09T05:50:58.533Z,-13.93
2023-01-09T05:53:25.788Z,-13.92
2023-01-09T05:55:53.070Z,-13.90
2023-01-09T05:58:20.402Z,-13.88
2023-01-09T06:00:48.737Z,-13.86
2023-01-09T06:03:15.966Z,-13.84
2023-01-09T06:05:43.205Z,-13.80
2023-01-09T06:08:10.541Z,-13.76
2023-01-09T06:10:37.786Z,-13.66
2023-01-09T06:13:05.149Z,-13.50
2023-01-09T06:15:32.324Z,-13.37
2023-01-09T06:17:59.749Z,-13.28
2023-01-09T06:20:27.002Z,-13.21
2023-01-09T06:22:54.354Z,-13.17
2023-01-09T06:25:21.721Z,-13.14
2023-01-09T06:27:50.049Z,-13.13
2023-01-09T06:30:17.644Z,-13.12
2023-01-09T06:32:44.913Z,-13.08
2023-01-09T06:35:12.123Z,-13.02
2023-01-09T06:37:39.346Z,-12.97
2023-01-09T06:40:07.292Z,-12.90
2023-01-09T06:42:34.501Z,-12.84
2023-01-09T06:45:02.698Z,-12.80
2023-01-09T06:47:29.942Z,-12.76
2023-01-09T06:49:58.525Z,-12.69
2023-01-09T06:52:25.771Z,-12.62
2023-01-09T06:54:53.046Z,-12.54
2023-01-09T06:57:20.402Z,-12.43
2023-01-09T06:59:47.699Z,-12.33
2023-01-09T07:02:19.434Z,-12.21
2023-01-09T07:04:46.774Z,-12.11
2023-01-09T07:07:14.797Z,-12.05
2023-01-09T07:09:42.073Z,-11.94
2023-01-09T07:12:09.641Z,-11.80
2023-01-09T07:14:37.108Z,-11.64
2023-01-09T07:17:04.388Z,-11.51
2023-01-09T07:19:31.629Z,-11.38
2023-01-09T07:21:58.940Z,-11.27
2023-01-09T07:24:26.205Z,-11.16
2023-01-09T07:26:53.564Z,-11.02
2023-01-09T07:29:20.914Z,-10.88
2023-01-09T07:31:48.471Z,-10.75
2023-01-09T07:34:15.724Z,-10.63
2023-01-09T07:36:47.422Z,-10.50
2023-01-09T07:39:14.901Z,-10.37
2023-01-09T07:41:42.160Z,-10.27
2023-01-09T07:44:11.165Z,-10.16
2023-01-09T07:46:38.990Z,-9.98
2023-01-09T07:49:06.762Z,-9.73
2023-01-09T07:51:35.056Z,-9.52
2023-01-09T07:54:02.260Z,-9.35
2023-01-09T07:56:29.492Z,-9.19
2023-01-09T07:58:57.455Z,-9.02
2023-01-09T08:01:26.157Z,-8.83
2023-01-09T08:03:54.729Z,-8.66
2023-01-09T08:06:22.175Z,-8.48
2023-01-09T08:08:50.296Z,-8.31
2023-01-09T08:11:19.990Z,-8.06
2023-01-09T08:13:47.182Z,-7.83
2023-01-09T08:16:14.494Z,-7.71
2023-01-09T08:18:42.037Z,-7.60
2023-01-09T08:21:09.798Z,-7.49
2023-01-09T08:23:37.766Z,-7.35
2023-01-09T08:26:05.221Z,-7.28
2023-01-09T08:28:32.481Z,-7.18
2023-01-09T08:30:59.665Z,-7.10
2023-01-09T08:33:27.452Z,-7.08
2023-01-09T08:35:56.433Z,-7.10
2023-01-09T08:38:24.321Z,-7.08
2023-01-09T08:40:52.019Z,-6.99
2023-01-09T08:43:38.124Z,-6.76
2023-01-09T08:46:24.474Z,-6.56
2023-01-09T08:48:51.829Z,-6.30
2023-01-09T08:51:19.087Z,-6.08
2023-01-09T08:53:46.329Z,-5.92
2023-01-09T08:56:13.641Z,-5.76
2023-01-09T08:58:41.479Z,-5.64
2023-01-09T09:01:08.760Z,-5.48
2023-01-09T09:03:36.031Z,-5.31
2023-01-09T09:06:03.850Z,-5.12
2023-01-09T09:08:31.079Z,-4.96
2023-01-09T09:11:01.480Z,-4.93
2023-01-09T09:13:28.697Z,-5.06
2023-01-09T09:15:57.917Z,-5.13
2023-01-09T09:18:25.179Z,-5.14
2023-01-09T09:20:52.695Z,-5.07
2023-01-09T09:23:20.741Z,-4.90
2023-01-09T09:25:48.014Z,-4.73
2023-01-09T09:28:15.226Z,-4.57
2023-01-09T09:30:43.945Z,-4.47
2023-01-09T09:33:11.634Z,-4.34
2023-01-09T09:35:39.001Z,-4.18
2023-01-09T09:38:06.835Z,-4.06
2023-01-09T09:40:57.530Z,-3.95
2023-01-09T09:43:49.909Z,-3.81
2023-01-09T09:46:29.874Z,-3.61
2023-01-09T09:49:07.930Z,-3.47
2023-01-09T09:51:38.157Z,-3.61
2023-01-09T09:54:13.738Z,-3.71
2023-01-09T09:56:47.247Z,-3.68
2023-01-09T09:59:22.140Z,-3.62
2023-01-09T10:01:53.478Z,-3.54
2023-01-09T10:04:21.730Z,-3.47
2023-01-09T10:06:51.299Z,-3.39
2023-01-09T10:09:48.623Z,-3.33
2023-01-09T10:12:31.946Z,-3.28
2023-01-09T10:15:00.655Z,-3.21
2023-01-09T10:17:45.776Z,-3.12
2023-01-09T10:20:25.141Z,-2.98
2023-01-09T10:23:11.715Z,-2.84
2023-01-09T10:25:46.680Z,-2.79
2023-01-09T10:28:14.033Z,-2.71
2023-01-09T10:30:42.909Z,-2.71
2023-01-09T10:33:34.192Z,-2.75
2023-01-09T10:36:16.653Z,-2.77
2023-01-09T10:38:45.824Z,-2.65
2023-01-09T10:41:39.499Z,-2.59
2023-01-09T10:44:45.792Z,-2.51
2023-01-09T10:47:27.266Z,-2.63
2023-01-09T10:49:54.494Z,-2.77
2023-01-09T10:52:30.547Z,-2.88
2023-01-09T10:55:01.874Z,-2.85
2023-01-09T10:57:45.861Z,-2.71
2023-01-09T11:00:24.022Z,-2.61
2023-01-09T11:02:55.383Z,-2.49
2023-01-09T11:05:28.139Z,-2.39
2023-01-09T11:08:12.942Z,-2.30
2023-01-09T11:10:51.489Z,-2.27
2023-01-09T11:13:30.063Z,-2.19
2023-01-09T11:16:22.356Z,-2.20
2023-01-09T11:18:52.557Z,-2.17
2023-01-09T11:21:33.037Z,-2.07
2023-01-09T11:24:24.186Z,-2.02
2023-01-09T11:26:53.018Z,-1.99
2023-01-09T11:29:25.370Z,-1.94
2023-01-09T11:31:58.574Z,-1.84
2023-01-09T11:34:31.493Z,-1.73
2023-01-09T11:37:09.441Z,-1.79
2023-01-09T11:39:41.438Z,-1.96
2023-01-09T11:42:44.529Z,-2.05
2023-01-09T11:45:16.037Z,-2.05
2023-01-09T11:47:43.307Z,-1.99
2023-01-09T11:50:31.115Z,-1.93
2023-01-09T11:53:18.545Z,-1.80
2023-01-09T11:55:47.215Z,-1.71
2023-01-09T11:58:16.744Z,-1.47
2023-01-09T12:01:06.497Z,-1.19
2023-01-09T12:03:55.858Z,-0.94
2023-01-09T12:06:44.586Z,-0.64
2023-01-09T12:09:28.756Z,0.04
2023-01-09T12:12:05.466Z,0.65
2023-01-09T12:14:35.869Z,0.78
2023-01-09T12:17:19.572Z,0.70
2023-01-09T12:20:34.223Z,0.47
2023-01-09T12:23:01.719Z,0.04
2023-01-09T12:25:38.429Z,-0.15
2023-01-09T12:28:39.140Z,-0.03
2023-01-09T12:31:15.896Z,0.06
2023-01-09T12:34:15.218Z,-0.10
2023-01-09T12:37:20.597Z,-0.39
2023-01-09T12:39:58.122Z,-0.69
2023-01-09T12:42:47.205Z,-1.00
2023-01-09T12:45:54.866Z,-1.30
2023-01-09T12:48:42.114Z,-1.55
2023-01-09T12:51:29.327Z,-1.81
2023-01-09T12:54:08.336Z,-2.07
2023-01-09T12:56:38.275Z,-2.18
2023-01-09T12:59:07.896Z,-2.29
2023-01-09T13:01:39.535Z,-2.44
2023-01-09T13:04:14.382Z,-2.55
2023-01-09T13:06:45.652Z,-2.70
2023-01-09T13:09:23.294Z,-2.83
2023-01-09T13:12:03.328Z,-2.97
2023-01-09T13:14:48.079Z,-3.10
2023-01-09T13:17:43.013Z,-3.22
2023-01-09T13:20:34.110Z,-3.36
2023-01-09T13:23:02.036Z,-3.47
2023-01-09T13:25:32.328Z,-3.58
2023-01-09T13:28:02.696Z,-3.67
2023-01-09T13:30:51.372Z,-3.74
2023-01-09T13:33:21.135Z,-3.80
2023-01-09T13:35:53.052Z,-3.87
2023-01-09T13:38:22.641Z,-3.94
2023-01-09T13:41:32.560Z,-4.01
2023-01-09T13:44:29.105Z,-4.13
2023-01-09T13:46:57.663Z,-4.22
2023-01-09T13:49:43.551Z,-4.29
2023-01-09T13:52:26.232Z,-4.35
2023-01-09T13:54:53.800Z,-4.43
2023-01-09T13:57:21.048Z,-4.49
2023-01-09T13:59:49.184Z,-4.53
2023-01-09T14:02:36.041Z,-4.59
2023-01-09T14:05:04.691Z,-4.66
2023-01-09T14:07:38.881Z,-4.72
2023-01-09T14:10:27.254Z,-4.77
2023-01-09T14:12:56.200Z,-4.84
2023-01-09T14:15:34.026Z,-4.90
2023-01-09T14:18:15.160Z,-4.96
2023-01-09T14:20:47.562Z,-5.02
2023-01-09T14:40:22.333Z,-5.04
2023-01-09T14:42:54.188Z,-5.05
2023-01-09T14:45:23.653Z,-5.12
2023-01-09T14:47:55.428Z,-5.21
2023-01-09T14:50:51.769Z,-5.30
2023-01-09T14:53:21.516Z,-5.39
2023-01-09T14:55:55.716Z,-5.46
2023-01-09T14:58:27.825Z,-5.52
2023-01-09T15:00:58.975Z,-5.59
2023-01-09T15:03:29.129Z,-5.65
2023-01-09T15:05:56.676Z,-5.70
2023-01-09T15:08:26.003Z,-5.74
2023-01-09T15:10:55.458Z,-5.77
2023-01-09T15:13:36.867Z,-5.81
2023-01-09T15:16:16.447Z,-5.85
2023-01-09T15:18:43.607Z,-5.90
2023-01-09T15:21:17.667Z,-5.95
2023-01-09T15:23:44.912Z,-6.00
2023-01-09T15:26:24.599Z,-6.06
2023-01-09T15:29:02.021Z,-6.13
2023-01-09T15:31:29.185Z,-6.19
2023-01-09T15:33:56.459Z,-6.25
2023-01-09T15:36:27.699Z,-6.32
2023-01-09T18:28:39.179Z,-8.92
2023-01-09T18:31:06.675Z,-8.82
2023-01-09T18:33:33.889Z,-8.82
2023-01-09T18:36:08.768Z,-8.83
2023-01-09T18:38:36.167Z,-8.86
2023-01-09T18:41:04.175Z,-8.89
2023-01-09T18:43:31.556Z,-8.92
2023-01-09T18:45:59.208Z,-8.94
2023-01-09T18:48:26.968Z,-8.95
2023-01-09T18:51:03.135Z,-8.96
2023-01-09T18:53:30.704Z,-8.98
2023-01-09T18:55:58.171Z,-9.03
2023-01-09T18:58:25.436Z,-9.06
2023-01-09T19:00:55.694Z,-9.09
2023-01-09T19:03:23.326Z,-9.12
2023-01-09T19:05:50.706Z,-9.15
2023-01-09T19:08:20.174Z,-9.19
2023-01-09T19:10:53.011Z,-9.22
2023-01-09T19:13:21.759Z,-9.25
2023-01-09T19:15:54.904Z,-9.26
2023-01-09T19:18:24.635Z,-9.25
2023-01-09T19:20:53.184Z,-9.26
2023-01-09T19:23:26.509Z,-9.28
2023-01-09T19:25:54.368Z,-9.30
2023-01-09T19:28:21.802Z,-9.33
2023-01-09T19:30:56.307Z,-9.34
2023-01-09T19:33:25.550Z,-9.38
2023-01-09T19:35:53.215Z,-9.39
2023-01-09T19:38:22.852Z,-9.41
2023-01-09T19:40:50.765Z,-9.44
2023-01-09T19:43:28.019Z,-9.47
2023-01-09T19:45:55.915Z,-9.51
2023-01-09T19:48:25.137Z,-9.55
2023-01-09T19:50:52.792Z,-9.60
2023-01-09T19:53:20.808Z,-9.62
2023-01-09T19:55:48.154Z,-9.64
2023-01-09T19:58:16.742Z,-9.66
2023-01-09T20:00:44.019Z,-9.70
2023-01-09T20:03:11.635Z,-9.72
2023-01-09T20:05:38.903Z,-9.74
2023-01-09T20:08:06.854Z,-9.77
2023-01-09T20:10:34.082Z,-9.78
2023-01-09T20:13:01.678Z,-9.80
2023-01-09T20:15:29.040Z,-9.82
2023-01-09T20:17:56.467Z,-9.85
2023-01-09T20:20:24.105Z,-9.87
2023-01-09T20:22:51.383Z,-9.90
2023-01-09T20:25:18.674Z,-9.91
2023-01-09T20:27:47.653Z,-9.91
2023-01-09T20:30:15.404Z,-9.90
2023-01-09T20:32:45.256Z,-9.91
2023-01-09T20:35:12.573Z,-9.92
2023-01-09T20:37:40.343Z,-9.95
2023-01-09T20:40:08.986Z,-9.97
2023-01-09T20:42:36.354Z,-10.00
2023-01-09T20:45:03.861Z,-10.01
2023-01-09T20:47:31.143Z,-10.04
2023-01-09T20:49:59.308Z,-10.05
2023-01-09T20:52:26.722Z,-10.06
2023-01-09T20:54:55.632Z,-10.06
2023-01-09T20:57:23.173Z,-10.09
2023-01-09T20:59:50.636Z,-10.11
2023-01-09T21:02:18.007Z,-10.13
2023-01-09T21:04:45.298Z,-10.16
2023-01-09T21:07:12.622Z,-10.17
2023-01-09T21:09:39.996Z,-10.17
2023-01-09T21:12:24.878Z,-10.18
2023-01-09T21:14:52.156Z,-10.19
2023-01-09T21:17:19.482Z,-10.22
2023-01-09T21:19:46.679Z,-10.24
2023-01-09T21:22:14.037Z,-10.27
2023-01-09T21:24:41.329Z,-10.30
2023-01-09T21:27:08.783Z,-10.32
2023-01-09T21:29:36.092Z,-10.34
2023-01-09T21:32:03.440Z,-10.36
2023-01-09T21:34:31.353Z,-10.37
2023-01-09T21:36:58.763Z,-10.39
2023-01-09T21:39:26.247Z,-10.40
2023-01-09T21:42:12.317Z,-10.41
2023-01-09T21:44:58.133Z,-10.42
2023-01-09T21:47:25.493Z,-10.44
2023-01-09T21:49:52.709Z,-10.46
2023-01-09T21:52:21.182Z,-10.48
2023-01-09T21:54:48.375Z,-10.50
2023-01-09T21:57:16.250Z,-10.50
2023-01-09T21:59:43.668Z,-10.50
2023-01-09T22:02:12.868Z,-10.50
2023-01-09T22:04:41.304Z,-10.52
2023-01-09T22:07:10.834Z,-10.55
2023-01-09T22:09:38.574Z,-10.58
2023-01-09T22:12:06.386Z,-10.60
2023-01-09T22:14:33.952Z,-10.62
2023-01-09T22:17:02.975Z,-10.63
